sensor_id;sensor_type;location;lat;lon;timestamp;P1;durP1;ratioP1;P2;durP2;ratioP2
70199;SDS011;57587;55.688;37.600;2023-04-24T00:01:22;10.25;;;6.43;;
70199;SDS011;57587;55.688;37.600;2023-04-24T00:03:50;13.80;;;6.90;;
70199;SDS011;57587;55.688;37.600;2023-04-24T00:06:18;11.27;;;6.55;;
70199;SDS011;57587;55.688;37.600;2023-04-24T00:08:45;9.30;;;6.30;;
70199;SDS011;57587;55.688;37.600;2023-04-24T00:11:12;11.13;;;6.57;;
70199;SDS011;57587;55.688;37.600;2023-04-24T00:13:39;8.77;;;6.65;;
70199;SDS011;57587;55.688;37.600;2023-04-24T00:16:06;12.85;;;7.40;;
70199;SDS011;57587;55.688;37.600;2023-04-24T00:18:34;11.02;;;7.00;;
70199;SDS011;57587;55.688;37.600;2023-04-24T00:21:01;14.10;;;7.50;;
70199;SDS011;57587;55.688;37.600;2023-04-24T00:23:28;10.10;;;7.70;;
70199;SDS011;57587;55.688;37.600;2023-04-24T00:25:55;11.15;;;7.43;;
70199;SDS011;57587;55.688;37.600;2023-04-24T00:28:22;16.27;;;8.15;;
70199;SDS011;57587;55.688;37.600;2023-04-24T00:30:49;12.35;;;7.97;;
70199;SDS011;57587;55.688;37.600;2023-04-24T00:33:16;12.23;;;7.60;;
70199;SDS011;57587;55.688;37.600;2023-04-24T00:35:43;14.33;;;8.23;;
70199;SDS011;57587;55.688;37.600;2023-04-24T00:38:10;12.05;;;7.80;;
70199;SDS011;57587;55.688;37.600;2023-04-24T00:40:38;14.07;;;7.95;;
70199;SDS011;57587;55.688;37.600;2023-04-24T00:43:05;12.77;;;7.85;;
70199;SDS011;57587;55.688;37.600;2023-04-24T00:45:36;14.52;;;7.57;;
70199;SDS011;57587;55.688;37.600;2023-04-24T00:48:03;10.60;;;7.43;;
70199;SDS011;57587;55.688;37.600;2023-04-24T00:50:30;13.50;;;8.75;;
70199;SDS011;57587;55.688;37.600;2023-04-24T00:52:58;12.27;;;8.48;;
70199;SDS011;57587;55.688;37.600;2023-04-24T00:55:25;12.88;;;8.23;;
70199;SDS011;57587;55.688;37.600;2023-04-24T00:57:52;12.75;;;9.07;;
70199;SDS011;57587;55.688;37.600;2023-04-24T01:00:20;17.70;;;8.13;;
70199;SDS011;57587;55.688;37.600;2023-04-24T01:02:47;13.00;;;8.63;;
70199;SDS011;57587;55.688;37.600;2023-04-24T01:05:15;12.65;;;8.85;;
70199;SDS011;57587;55.688;37.600;2023-04-24T01:07:44;14.35;;;8.90;;
70199;SDS011;57587;55.688;37.600;2023-04-24T01:10:14;12.77;;;8.93;;
70199;SDS011;57587;55.688;37.600;2023-04-24T01:12:41;13.90;;;9.27;;
70199;SDS011;57587;55.688;37.600;2023-04-24T01:15:11;13.15;;;9.73;;
70199;SDS011;57587;55.688;37.600;2023-04-24T01:17:38;15.00;;;9.65;;
70199;SDS011;57587;55.688;37.600;2023-04-24T01:20:06;14.98;;;10.15;;
70199;SDS011;57587;55.688;37.600;2023-04-24T01:22:34;14.10;;;8.93;;
70199;SDS011;57587;55.688;37.600;2023-04-24T01:25:02;16.13;;;9.40;;
70199;SDS011;57587;55.688;37.600;2023-04-24T01:27:31;15.02;;;9.25;;
70199;SDS011;57587;55.688;37.600;2023-04-24T01:29:59;13.30;;;10.05;;
70199;SDS011;57587;55.688;37.600;2023-04-24T01:32:29;13.80;;;9.27;;
70199;SDS011;57587;55.688;37.600;2023-04-24T01:34:58;14.27;;;9.80;;
70199;SDS011;57587;55.688;37.600;2023-04-24T01:37:25;16.13;;;10.23;;
70199;SDS011;57587;55.688;37.600;2023-04-24T01:39:53;13.70;;;10.00;;
70199;SDS011;57587;55.688;37.600;2023-04-24T01:42:21;15.00;;;9.95;;
70199;SDS011;57587;55.688;37.600;2023-04-24T01:44:48;18.00;;;10.77;;
70199;SDS011;57587;55.688;37.600;2023-04-24T01:47:16;19.33;;;10.45;;
70199;SDS011;57587;55.688;37.600;2023-04-24T01:49:43;14.67;;;9.57;;
70199;SDS011;57587;55.688;37.600;2023-04-24T01:52:12;18.13;;;10.77;;
70199;SDS011;57587;55.688;37.600;2023-04-24T01:54:39;15.95;;;11.00;;
70199;SDS011;57587;55.688;37.600;2023-04-24T01:57:06;15.75;;;10.35;;
70199;SDS011;57587;55.688;37.600;2023-04-24T01:59:34;14.82;;;10.60;;
70199;SDS011;57587;55.688;37.600;2023-04-24T02:02:03;15.40;;;10.77;;
70199;SDS011;57587;55.688;37.600;2023-04-24T02:04:30;17.60;;;10.57;;
70199;SDS011;57587;55.688;37.600;2023-04-24T02:06:57;18.67;;;10.93;;
70199;SDS011;57587;55.688;37.600;2023-04-24T02:09:24;16.52;;;10.68;;
70199;SDS011;57587;55.688;37.600;2023-04-24T02:11:51;15.45;;;10.18;;
70199;SDS011;57587;55.688;37.600;2023-04-24T02:14:18;16.87;;;10.70;;
70199;SDS011;57587;55.688;37.600;2023-04-24T02:16:46;20.02;;;10.93;;
70199;SDS011;57587;55.688;37.600;2023-04-24T02:19:14;20.27;;;10.93;;
70199;SDS011;57587;55.688;37.600;2023-04-24T02:21:42;22.35;;;11.27;;
70199;SDS011;57587;55.688;37.600;2023-04-24T02:24:09;17.30;;;10.48;;
70199;SDS011;57587;55.688;37.600;2023-04-24T02:26:36;18.40;;;10.53;;
70199;SDS011;57587;55.688;37.600;2023-04-24T02:29:03;15.60;;;11.07;;
70199;SDS011;57587;55.688;37.600;2023-04-24T02:31:31;20.55;;;10.98;;
70199;SDS011;57587;55.688;37.600;2023-04-24T02:33:58;18.75;;;10.48;;
70199;SDS011;57587;55.688;37.600;2023-04-24T02:36:25;18.45;;;10.30;;
70199;SDS011;57587;55.688;37.600;2023-04-24T02:38:52;19.37;;;11.53;;
70199;SDS011;57587;55.688;37.600;2023-04-24T02:41:19;19.33;;;10.43;;
70199;SDS011;57587;55.688;37.600;2023-04-24T02:43:47;16.20;;;11.27;;
70199;SDS011;57587;55.688;37.600;2023-04-24T02:46:14;17.13;;;9.98;;
70199;SDS011;57587;55.688;37.600;2023-04-24T02:48:41;19.02;;;10.75;;
70199;SDS011;57587;55.688;37.600;2023-04-24T02:51:08;18.20;;;11.90;;
70199;SDS011;57587;55.688;37.600;2023-04-24T02:53:36;17.45;;;10.77;;
70199;SDS011;57587;55.688;37.600;2023-04-24T02:56:03;15.23;;;10.93;;
70199;SDS011;57587;55.688;37.600;2023-04-24T02:58:30;14.85;;;10.02;;
70199;SDS011;57587;55.688;37.600;2023-04-24T03:00:57;19.48;;;10.38;;
70199;SDS011;57587;55.688;37.600;2023-04-24T03:03:24;18.03;;;10.17;;
70199;SDS011;57587;55.688;37.600;2023-04-24T03:05:52;21.35;;;10.95;;
70199;SDS011;57587;55.688;37.600;2023-04-24T03:08:19;21.75;;;10.27;;
70199;SDS011;57587;55.688;37.600;2023-04-24T03:10:47;18.42;;;10.38;;
70199;SDS011;57587;55.688;37.600;2023-04-24T03:13:15;17.15;;;10.82;;
70199;SDS011;57587;55.688;37.600;2023-04-24T03:15:43;17.90;;;10.77;;
70199;SDS011;57587;55.688;37.600;2023-04-24T03:18:11;17.00;;;9.70;;
70199;SDS011;57587;55.688;37.600;2023-04-24T03:20:38;18.85;;;10.70;;
70199;SDS011;57587;55.688;37.600;2023-04-24T03:23:06;26.35;;;11.60;;
70199;SDS011;57587;55.688;37.600;2023-04-24T03:25:35;16.80;;;10.43;;
70199;SDS011;57587;55.688;37.600;2023-04-24T03:28:02;16.00;;;10.40;;
70199;SDS011;57587;55.688;37.600;2023-04-24T03:30:43;20.80;;;10.52;;
70199;SDS011;57587;55.688;37.600;2023-04-24T03:33:12;19.30;;;10.75;;
70199;SDS011;57587;55.688;37.600;2023-04-24T03:35:46;14.45;;;10.10;;
70199;SDS011;57587;55.688;37.600;2023-04-24T03:38:13;18.08;;;11.25;;
70199;SDS011;57587;55.688;37.600;2023-04-24T03:40:53;15.37;;;10.57;;
70199;SDS011;57587;55.688;37.600;2023-04-24T03:43:34;16.10;;;10.55;;
70199;SDS011;57587;55.688;37.600;2023-04-24T03:46:02;17.08;;;11.13;;
70199;SDS011;57587;55.688;37.600;2023-04-24T03:48:32;18.85;;;11.15;;
70199;SDS011;57587;55.688;37.600;2023-04-24T03:51:00;14.40;;;9.88;;
70199;SDS011;57587;55.688;37.600;2023-04-24T03:53:29;14.73;;;9.73;;
70199;SDS011;57587;55.688;37.600;2023-04-24T03:55:57;12.23;;;9.20;;
70199;SDS011;57587;55.688;37.600;2023-04-24T03:58:25;12.30;;;10.02;;
70199;SDS011;57587;55.688;37.600;2023-04-24T04:00:54;18.42;;;10.30;;
70199;SDS011;57587;55.688;37.600;2023-04-24T04:03:45;13.68;;;9.63;;
70199;SDS011;57587;55.688;37.600;2023-04-24T04:06:15;14.67;;;10.03;;
70199;SDS011;57587;55.688;37.600;2023-04-24T04:08:43;14.95;;;10.77;;
70199;SDS011;57587;55.688;37.600;2023-04-24T04:11:10;15.57;;;10.75;;
70199;SDS011;57587;55.688;37.600;2023-04-24T04:13:37;15.75;;;10.15;;
70199;SDS011;57587;55.688;37.600;2023-04-24T04:16:04;15.70;;;9.85;;
70199;SDS011;57587;55.688;37.600;2023-04-24T04:18:31;11.33;;;9.40;;
70199;SDS011;57587;55.688;37.600;2023-04-24T04:21:00;16.98;;;9.85;;
70199;SDS011;57587;55.688;37.600;2023-04-24T04:23:28;20.60;;;13.90;;
70199;SDS011;57587;55.688;37.600;2023-04-24T04:26:07;20.75;;;13.95;;
70199;SDS011;57587;55.688;37.600;2023-04-24T04:28:48;14.30;;;10.70;;
70199;SDS011;57587;55.688;37.600;2023-04-24T04:31:15;13.67;;;10.30;;
70199;SDS011;57587;55.688;37.600;2023-04-24T04:33:43;12.77;;;9.43;;
70199;SDS011;57587;55.688;37.600;2023-04-24T04:36:10;16.13;;;9.70;;
70199;SDS011;57587;55.688;37.600;2023-04-24T04:38:43;14.82;;;9.15;;
70199;SDS011;57587;55.688;37.600;2023-04-24T04:41:22;12.18;;;9.20;;
70199;SDS011;57587;55.688;37.600;2023-04-24T04:43:49;16.33;;;9.60;;
70199;SDS011;57587;55.688;37.600;2023-04-24T04:46:17;17.92;;;9.50;;
70199;SDS011;57587;55.688;37.600;2023-04-24T04:49:03;14.57;;;9.30;;
70199;SDS011;57587;55.688;37.600;2023-04-24T04:51:30;13.82;;;9.65;;
70199;SDS011;57587;55.688;37.600;2023-04-24T04:53:57;13.48;;;9.27;;
70199;SDS011;57587;55.688;37.600;2023-04-24T04:56:25;10.77;;;9.00;;
70199;SDS011;57587;55.688;37.600;2023-04-24T04:58:52;14.15;;;9.10;;
70199;SDS011;57587;55.688;37.600;2023-04-24T05:01:20;11.55;;;9.23;;
70199;SDS011;57587;55.688;37.600;2023-04-24T05:03:48;11.05;;;8.55;;
70199;SDS011;57587;55.688;37.600;2023-04-24T05:06:16;12.07;;;8.55;;
70199;SDS011;57587;55.688;37.600;2023-04-24T05:08:45;11.80;;;8.77;;
70199;SDS011;57587;55.688;37.600;2023-04-24T05:11:27;14.93;;;9.07;;
70199;SDS011;57587;55.688;37.600;2023-04-24T05:13:56;14.13;;;8.98;;
70199;SDS011;57587;55.688;37.600;2023-04-24T05:16:31;16.42;;;8.73;;
70199;SDS011;57587;55.688;37.600;2023-04-24T05:18:59;14.70;;;8.70;;
70199;SDS011;57587;55.688;37.600;2023-04-24T05:21:31;14.20;;;8.20;;
70199;SDS011;57587;55.688;37.600;2023-04-24T05:23:59;13.43;;;8.75;;
70199;SDS011;57587;55.688;37.600;2023-04-24T05:26:42;13.57;;;8.23;;
70199;SDS011;57587;55.688;37.600;2023-04-24T05:29:10;16.70;;;8.63;;
70199;SDS011;57587;55.688;37.600;2023-04-24T05:31:38;16.55;;;8.43;;
70199;SDS011;57587;55.688;37.600;2023-04-24T05:34:05;13.17;;;8.03;;
70199;SDS011;57587;55.688;37.600;2023-04-24T05:36:32;13.95;;;7.63;;
70199;SDS011;57587;55.688;37.600;2023-04-24T05:39:00;11.60;;;8.07;;
70199;SDS011;57587;55.688;37.600;2023-04-24T05:41:27;14.98;;;7.88;;
70199;SDS011;57587;55.688;37.600;2023-04-24T05:43:54;14.20;;;8.68;;
70199;SDS011;57587;55.688;37.600;2023-04-24T05:46:21;15.37;;;8.27;;
70199;SDS011;57587;55.688;37.600;2023-04-24T05:48:49;14.52;;;7.43;;
70199;SDS011;57587;55.688;37.600;2023-04-24T05:51:17;13.00;;;8.23;;
70199;SDS011;57587;55.688;37.600;2023-04-24T05:53:44;9.55;;;7.60;;
70199;SDS011;57587;55.688;37.600;2023-04-24T05:56:12;13.25;;;7.80;;
70199;SDS011;57587;55.688;37.600;2023-04-24T05:58:40;14.10;;;7.40;;
70199;SDS011;57587;55.688;37.600;2023-04-24T06:01:08;10.52;;;7.70;;
70199;SDS011;57587;55.688;37.600;2023-04-24T06:03:37;9.10;;;7.13;;
70199;SDS011;57587;55.688;37.600;2023-04-24T06:06:06;11.23;;;7.45;;
70199;SDS011;57587;55.688;37.600;2023-04-24T06:08:35;10.60;;;7.80;;
70199;SDS011;57587;55.688;37.600;2023-04-24T06:11:02;10.23;;;7.43;;
70199;SDS011;57587;55.688;37.600;2023-04-24T06:13:31;11.98;;;7.30;;
70199;SDS011;57587;55.688;37.600;2023-04-24T06:16:19;11.20;;;7.50;;
70199;SDS011;57587;55.688;37.600;2023-04-24T06:18:53;11.50;;;7.38;;
70199;SDS011;57587;55.688;37.600;2023-04-24T06:21:20;12.40;;;6.95;;
70199;SDS011;57587;55.688;37.600;2023-04-24T06:23:47;9.83;;;7.27;;
70199;SDS011;57587;55.688;37.600;2023-04-24T06:26:16;11.48;;;7.20;;
70199;SDS011;57587;55.688;37.600;2023-04-24T06:28:43;8.05;;;6.50;;
70199;SDS011;57587;55.688;37.600;2023-04-24T06:31:10;13.93;;;7.85;;
70199;SDS011;57587;55.688;37.600;2023-04-24T06:33:37;10.73;;;6.97;;
70199;SDS011;57587;55.688;37.600;2023-04-24T06:36:05;11.13;;;7.60;;
70199;SDS011;57587;55.688;37.600;2023-04-24T06:38:32;13.52;;;7.85;;
70199;SDS011;57587;55.688;37.600;2023-04-24T06:41:00;9.90;;;7.30;;
70199;SDS011;57587;55.688;37.600;2023-04-24T06:43:27;8.68;;;7.38;;
70199;SDS011;57587;55.688;37.600;2023-04-24T06:45:54;7.82;;;6.30;;
70199;SDS011;57587;55.688;37.600;2023-04-24T06:48:21;18.50;;;7.07;;
70199;SDS011;57587;55.688;37.600;2023-04-24T06:50:48;7.72;;;6.68;;
70199;SDS011;57587;55.688;37.600;2023-04-24T06:53:16;10.57;;;6.78;;
70199;SDS011;57587;55.688;37.600;2023-04-24T06:55:43;8.32;;;6.80;;
70199;SDS011;57587;55.688;37.600;2023-04-24T06:58:12;12.63;;;6.63;;
70199;SDS011;57587;55.688;37.600;2023-04-24T07:00:40;8.73;;;6.60;;
70199;SDS011;57587;55.688;37.600;2023-04-24T07:03:07;6.63;;;5.85;;
70199;SDS011;57587;55.688;37.600;2023-04-24T07:05:34;8.73;;;6.57;;
70199;SDS011;57587;55.688;37.600;2023-04-24T07:08:02;10.95;;;6.40;;
70199;SDS011;57587;55.688;37.600;2023-04-24T07:10:29;15.55;;;6.47;;
70199;SDS011;57587;55.688;37.600;2023-04-24T07:12:57;13.23;;;6.23;;
70199;SDS011;57587;55.688;37.600;2023-04-24T07:15:24;13.65;;;6.57;;
70199;SDS011;57587;55.688;37.600;2023-04-24T07:17:51;11.50;;;6.68;;
70199;SDS011;57587;55.688;37.600;2023-04-24T07:20:18;11.18;;;7.10;;
70199;SDS011;57587;55.688;37.600;2023-04-24T07:22:45;8.07;;;6.78;;
70199;SDS011;57587;55.688;37.600;2023-04-24T07:25:12;9.17;;;6.00;;
70199;SDS011;57587;55.688;37.600;2023-04-24T07:27:39;8.50;;;6.22;;
70199;SDS011;57587;55.688;37.600;2023-04-24T07:30:06;16.10;;;6.90;;
70199;SDS011;57587;55.688;37.600;2023-04-24T07:32:34;9.75;;;6.47;;
70199;SDS011;57587;55.688;37.600;2023-04-24T07:35:01;9.23;;;6.75;;
70199;SDS011;57587;55.688;37.600;2023-04-24T07:37:29;9.67;;;6.13;;
70199;SDS011;57587;55.688;37.600;2023-04-24T07:39:56;10.73;;;6.28;;
70199;SDS011;57587;55.688;37.600;2023-04-24T07:42:24;11.82;;;6.70;;
70199;SDS011;57587;55.688;37.600;2023-04-24T07:44:51;8.73;;;6.88;;
70199;SDS011;57587;55.688;37.600;2023-04-24T07:47:18;9.55;;;7.20;;
70199;SDS011;57587;55.688;37.600;2023-04-24T07:49:45;6.33;;;4.60;;
70199;SDS011;57587;55.688;37.600;2023-04-24T07:52:12;9.65;;;5.93;;
70199;SDS011;57587;55.688;37.600;2023-04-24T07:54:39;8.50;;;6.95;;
70199;SDS011;57587;55.688;37.600;2023-04-24T07:57:07;14.20;;;6.70;;
70199;SDS011;57587;55.688;37.600;2023-04-24T07:59:34;14.70;;;6.90;;
70199;SDS011;57587;55.688;37.600;2023-04-24T08:02:01;10.20;;;5.23;;
70199;SDS011;57587;55.688;37.600;2023-04-24T08:04:29;8.50;;;5.20;;
70199;SDS011;57587;55.688;37.600;2023-04-24T08:06:56;9.88;;;7.22;;
70199;SDS011;57587;55.688;37.600;2023-04-24T08:09:23;7.30;;;6.60;;
70199;SDS011;57587;55.688;37.600;2023-04-24T08:12:07;9.25;;;7.13;;
70199;SDS011;57587;55.688;37.600;2023-04-24T08:14:34;10.33;;;6.73;;
70199;SDS011;57587;55.688;37.600;2023-04-24T08:17:01;7.88;;;5.05;;
70199;SDS011;57587;55.688;37.600;2023-04-24T08:19:30;8.52;;;6.43;;
70199;SDS011;57587;55.688;37.600;2023-04-24T08:21:57;7.82;;;6.47;;
70199;SDS011;57587;55.688;37.600;2023-04-24T08:24:24;9.45;;;6.38;;
70199;SDS011;57587;55.688;37.600;2023-04-24T08:26:51;10.07;;;7.20;;
70199;SDS011;57587;55.688;37.600;2023-04-24T08:29:20;9.35;;;6.72;;
70199;SDS011;57587;55.688;37.600;2023-04-24T08:31:47;7.95;;;6.28;;
70199;SDS011;57587;55.688;37.600;2023-04-24T08:34:14;9.25;;;6.28;;
70199;SDS011;57587;55.688;37.600;2023-04-24T08:36:42;8.80;;;6.20;;
70199;SDS011;57587;55.688;37.600;2023-04-24T08:39:13;12.80;;;6.10;;
70199;SDS011;57587;55.688;37.600;2023-04-24T08:41:41;9.25;;;6.47;;
70199;SDS011;57587;55.688;37.600;2023-04-24T08:44:12;8.63;;;5.95;;
70199;SDS011;57587;55.688;37.600;2023-04-24T08:46:45;12.32;;;6.78;;
70199;SDS011;57587;55.688;37.600;2023-04-24T08:49:15;10.00;;;6.78;;
70199;SDS011;57587;55.688;37.600;2023-04-24T08:51:46;11.20;;;6.23;;
70199;SDS011;57587;55.688;37.600;2023-04-24T08:54:14;8.68;;;6.05;;
70199;SDS011;57587;55.688;37.600;2023-04-24T08:56:43;10.15;;;5.20;;
70199;SDS011;57587;55.688;37.600;2023-04-24T08:59:11;11.77;;;6.10;;
70199;SDS011;57587;55.688;37.600;2023-04-24T09:01:39;8.85;;;7.13;;
70199;SDS011;57587;55.688;37.600;2023-04-24T09:04:08;13.80;;;6.40;;
70199;SDS011;57587;55.688;37.600;2023-04-24T09:06:38;8.43;;;6.47;;
70199;SDS011;57587;55.688;37.600;2023-04-24T09:09:05;12.52;;;5.97;;
70199;SDS011;57587;55.688;37.600;2023-04-24T09:11:33;9.05;;;5.43;;
70199;SDS011;57587;55.688;37.600;2023-04-24T09:14:01;10.15;;;6.72;;
70199;SDS011;57587;55.688;37.600;2023-04-24T09:16:28;9.40;;;6.87;;
70199;SDS011;57587;55.688;37.600;2023-04-24T09:18:56;7.10;;;6.22;;
70199;SDS011;57587;55.688;37.600;2023-04-24T09:21:23;8.73;;;6.35;;
70199;SDS011;57587;55.688;37.600;2023-04-24T09:24:00;9.35;;;6.10;;
70199;SDS011;57587;55.688;37.600;2023-04-24T09:26:30;8.63;;;5.07;;
70199;SDS011;57587;55.688;37.600;2023-04-24T09:28:59;10.97;;;5.50;;
70199;SDS011;57587;55.688;37.600;2023-04-24T09:31:28;13.50;;;5.65;;
70199;SDS011;57587;55.688;37.600;2023-04-24T09:34:02;10.82;;;6.07;;
70199;SDS011;57587;55.688;37.600;2023-04-24T09:36:34;9.63;;;5.20;;
70199;SDS011;57587;55.688;37.600;2023-04-24T09:39:11;7.60;;;5.30;;
70199;SDS011;57587;55.688;37.600;2023-04-24T09:41:46;11.13;;;4.90;;
70199;SDS011;57587;55.688;37.600;2023-04-24T09:44:14;10.32;;;5.78;;
70199;SDS011;57587;55.688;37.600;2023-04-24T09:46:43;11.15;;;5.40;;
70199;SDS011;57587;55.688;37.600;2023-04-24T09:49:12;8.02;;;5.20;;
70199;SDS011;57587;55.688;37.600;2023-04-24T09:51:44;7.57;;;4.75;;
70199;SDS011;57587;55.688;37.600;2023-04-24T09:54:15;7.03;;;5.00;;
70199;SDS011;57587;55.688;37.600;2023-04-24T09:56:45;9.38;;;5.78;;
70199;SDS011;57587;55.688;37.600;2023-04-24T09:59:14;7.43;;;5.15;;
70199;SDS011;57587;55.688;37.600;2023-04-24T10:01:42;8.77;;;5.60;;
70199;SDS011;57587;55.688;37.600;2023-04-24T10:04:15;8.00;;;5.10;;
70199;SDS011;57587;55.688;37.600;2023-04-24T10:06:46;7.57;;;4.93;;
70199;SDS011;57587;55.688;37.600;2023-04-24T10:09:16;8.63;;;5.30;;
70199;SDS011;57587;55.688;37.600;2023-04-24T10:11:48;9.75;;;5.30;;
70199;SDS011;57587;55.688;37.600;2023-04-24T10:14:17;12.88;;;5.68;;
70199;SDS011;57587;55.688;37.600;2023-04-24T10:16:47;8.07;;;5.20;;
70199;SDS011;57587;55.688;37.600;2023-04-24T10:19:16;9.57;;;5.40;;
70199;SDS011;57587;55.688;37.600;2023-04-24T10:21:47;11.70;;;5.53;;
70199;SDS011;57587;55.688;37.600;2023-04-24T10:24:17;7.97;;;5.05;;
70199;SDS011;57587;55.688;37.600;2023-04-24T10:26:47;8.95;;;5.18;;
70199;SDS011;57587;55.688;37.600;2023-04-24T10:29:16;7.55;;;5.07;;
70199;SDS011;57587;55.688;37.600;2023-04-24T10:31:44;9.73;;;5.30;;
70199;SDS011;57587;55.688;37.600;2023-04-24T10:34:13;9.02;;;5.35;;
70199;SDS011;57587;55.688;37.600;2023-04-24T10:36:43;8.20;;;5.20;;
70199;SDS011;57587;55.688;37.600;2023-04-24T10:39:14;8.18;;;5.53;;
70199;SDS011;57587;55.688;37.600;2023-04-24T10:41:43;9.00;;;5.28;;
70199;SDS011;57587;55.688;37.600;2023-04-24T10:44:14;8.00;;;4.87;;
70199;SDS011;57587;55.688;37.600;2023-04-24T10:46:43;8.48;;;5.53;;
70199;SDS011;57587;55.688;37.600;2023-04-24T10:49:27;9.23;;;5.38;;
70199;SDS011;57587;55.688;37.600;2023-04-24T10:51:59;9.50;;;5.10;;
70199;SDS011;57587;55.688;37.600;2023-04-24T10:59:50;8.50;;;5.20;;
70199;SDS011;57587;55.688;37.600;2023-04-24T11:02:37;8.68;;;4.93;;
70199;SDS011;57587;55.688;37.600;2023-04-24T11:05:06;9.73;;;5.18;;
70199;SDS011;57587;55.688;37.600;2023-04-24T11:10:37;7.67;;;5.20;;
70199;SDS011;57587;55.688;37.600;2023-04-24T11:13:05;7.95;;;5.43;;
70199;SDS011;57587;55.688;37.600;2023-04-24T11:15:33;7.30;;;4.90;;
70199;SDS011;57587;55.688;37.600;2023-04-24T11:18:00;7.93;;;4.93;;
70199;SDS011;57587;55.688;37.600;2023-04-24T11:20:27;9.48;;;5.18;;
70199;SDS011;57587;55.688;37.600;2023-04-24T11:22:55;14.00;;;5.10;;
70199;SDS011;57587;55.688;37.600;2023-04-24T11:25:24;9.45;;;5.13;;
70199;SDS011;57587;55.688;37.600;2023-04-24T11:28:02;9.52;;;5.03;;
70199;SDS011;57587;55.688;37.600;2023-04-24T11:30:31;8.48;;;5.07;;
70199;SDS011;57587;55.688;37.600;2023-04-24T11:33:03;8.00;;;4.68;;
70199;SDS011;57587;55.688;37.600;2023-04-24T11:35:35;9.33;;;5.00;;
70199;SDS011;57587;55.688;37.600;2023-04-24T11:38:06;8.65;;;5.00;;
70199;SDS011;57587;55.688;37.600;2023-04-24T11:40:49;6.43;;;4.60;;
70199;SDS011;57587;55.688;37.600;2023-04-24T11:43:18;6.78;;;4.55;;
70199;SDS011;57587;55.688;37.600;2023-04-24T11:45:49;8.77;;;4.85;;
70199;SDS011;57587;55.688;37.600;2023-04-24T11:48:20;8.77;;;5.13;;
70199;SDS011;57587;55.688;37.600;2023-04-24T11:50:49;8.18;;;5.18;;
70199;SDS011;57587;55.688;37.600;2023-04-24T11:53:18;9.50;;;5.35;;
70199;SDS011;57587;55.688;37.600;2023-04-24T11:55:47;9.02;;;5.20;;
70199;SDS011;57587;55.688;37.600;2023-04-24T11:58:14;9.85;;;5.10;;
70199;SDS011;57587;55.688;37.600;2023-04-24T12:00:41;7.73;;;4.80;;
70199;SDS011;57587;55.688;37.600;2023-04-24T12:03:09;6.95;;;4.65;;
70199;SDS011;57587;55.688;37.600;2023-04-24T12:05:38;7.68;;;4.80;;
70199;SDS011;57587;55.688;37.600;2023-04-24T12:08:07;9.48;;;5.57;;
70199;SDS011;57587;55.688;37.600;2023-04-24T12:10:34;8.38;;;4.78;;
70199;SDS011;57587;55.688;37.600;2023-04-24T12:13:01;10.97;;;5.13;;
70199;SDS011;57587;55.688;37.600;2023-04-24T12:15:29;7.32;;;5.30;;
70199;SDS011;57587;55.688;37.600;2023-04-24T12:17:56;7.15;;;4.95;;
70199;SDS011;57587;55.688;37.600;2023-04-24T12:20:26;8.32;;;5.32;;
70199;SDS011;57587;55.688;37.600;2023-04-24T12:22:56;11.35;;;5.25;;
70199;SDS011;57587;55.688;37.600;2023-04-24T12:25:24;8.10;;;4.93;;
70199;SDS011;57587;55.688;37.600;2023-04-24T12:27:54;8.95;;;4.90;;
70199;SDS011;57587;55.688;37.600;2023-04-24T12:30:32;7.13;;;4.90;;
70199;SDS011;57587;55.688;37.600;2023-04-24T12:33:05;10.18;;;5.78;;
70199;SDS011;57587;55.688;37.600;2023-04-24T12:35:33;12.80;;;6.03;;
70199;SDS011;57587;55.688;37.600;2023-04-24T12:38:05;9.00;;;4.97;;
70199;SDS011;57587;55.688;37.600;2023-04-24T12:40:34;6.85;;;4.50;;
70199;SDS011;57587;55.688;37.600;2023-04-24T12:43:02;8.02;;;4.85;;
70199;SDS011;57587;55.688;37.600;2023-04-24T12:45:39;9.07;;;4.50;;
70199;SDS011;57587;55.688;37.600;2023-04-24T12:48:06;8.30;;;4.80;;
70199;SDS011;57587;55.688;37.600;2023-04-24T12:50:34;8.67;;;4.37;;
70199;SDS011;57587;55.688;37.600;2023-04-24T12:53:01;8.57;;;4.32;;
70199;SDS011;57587;55.688;37.600;2023-04-24T12:55:28;8.63;;;4.97;;
70199;SDS011;57587;55.688;37.600;2023-04-24T12:57:55;9.15;;;4.25;;
70199;SDS011;57587;55.688;37.600;2023-04-24T13:00:22;8.05;;;4.43;;
70199;SDS011;57587;55.688;37.600;2023-04-24T13:02:49;9.67;;;4.43;;
70199;SDS011;57587;55.688;37.600;2023-04-24T13:05:17;7.18;;;4.22;;
70199;SDS011;57587;55.688;37.600;2023-04-24T13:07:44;9.45;;;4.45;;
70199;SDS011;57587;55.688;37.600;2023-04-24T13:10:11;6.75;;;4.47;;
70199;SDS011;57587;55.688;37.600;2023-04-24T13:12:40;7.80;;;4.30;;
70199;SDS011;57587;55.688;37.600;2023-04-24T13:15:07;10.20;;;4.57;;
70199;SDS011;57587;55.688;37.600;2023-04-24T13:17:34;9.52;;;4.80;;
70199;SDS011;57587;55.688;37.600;2023-04-24T13:20:02;6.75;;;4.35;;
70199;SDS011;57587;55.688;37.600;2023-04-24T13:22:30;10.45;;;4.45;;
70199;SDS011;57587;55.688;37.600;2023-04-24T13:24:57;8.80;;;4.63;;
70199;SDS011;57587;55.688;37.600;2023-04-24T13:27:24;9.60;;;5.10;;
70199;SDS011;57587;55.688;37.600;2023-04-24T13:29:51;6.72;;;4.93;;
70199;SDS011;57587;55.688;37.600;2023-04-24T13:32:18;7.90;;;4.57;;
70199;SDS011;57587;55.688;37.600;2023-04-24T13:34:46;7.00;;;4.78;;
70199;SDS011;57587;55.688;37.600;2023-04-24T13:37:13;8.35;;;4.57;;
70199;SDS011;57587;55.688;37.600;2023-04-24T13:39:40;9.77;;;4.73;;
70199;SDS011;57587;55.688;37.600;2023-04-24T13:42:10;13.25;;;5.20;;
70199;SDS011;57587;55.688;37.600;2023-04-24T13:44:37;7.75;;;4.55;;
70199;SDS011;57587;55.688;37.600;2023-04-24T13:47:04;8.50;;;5.18;;
70199;SDS011;57587;55.688;37.600;2023-04-24T13:49:32;11.10;;;5.20;;
70199;SDS011;57587;55.688;37.600;2023-04-24T13:51:59;11.40;;;4.77;;
70199;SDS011;57587;55.688;37.600;2023-04-24T13:54:26;7.25;;;4.57;;
70199;SDS011;57587;55.688;37.600;2023-04-24T13:56:55;6.07;;;4.00;;
70199;SDS011;57587;55.688;37.600;2023-04-24T13:59:24;7.35;;;4.20;;
70199;SDS011;57587;55.688;37.600;2023-04-24T14:01:51;12.40;;;4.85;;
70199;SDS011;57587;55.688;37.600;2023-04-24T14:04:19;7.93;;;4.60;;
70199;SDS011;57587;55.688;37.600;2023-04-24T14:06:46;9.38;;;4.30;;
70199;SDS011;57587;55.688;37.600;2023-04-24T14:09:14;7.13;;;4.60;;
70199;SDS011;57587;55.688;37.600;2023-04-24T14:11:41;9.10;;;4.65;;
70199;SDS011;57587;55.688;37.600;2023-04-24T14:14:08;7.88;;;4.78;;
70199;SDS011;57587;55.688;37.600;2023-04-24T14:16:35;6.50;;;4.30;;
70199;SDS011;57587;55.688;37.600;2023-04-24T14:19:03;7.50;;;4.60;;
70199;SDS011;57587;55.688;37.600;2023-04-24T14:21:32;12.48;;;4.65;;
70199;SDS011;57587;55.688;37.600;2023-04-24T14:24:00;8.93;;;4.60;;
70199;SDS011;57587;55.688;37.600;2023-04-24T14:26:27;11.95;;;4.50;;
70199;SDS011;57587;55.688;37.600;2023-04-24T14:28:54;9.83;;;4.33;;
70199;SDS011;57587;55.688;37.600;2023-04-24T14:31:39;9.60;;;4.40;;
70199;SDS011;57587;55.688;37.600;2023-04-24T14:34:07;6.85;;;4.32;;
70199;SDS011;57587;55.688;37.600;2023-04-24T14:36:34;6.95;;;4.38;;
70199;SDS011;57587;55.688;37.600;2023-04-24T14:39:01;6.93;;;4.40;;
70199;SDS011;57587;55.688;37.600;2023-04-24T14:41:34;8.37;;;4.27;;
70199;SDS011;57587;55.688;37.600;2023-04-24T14:44:03;7.82;;;4.72;;